createdAt,value
2023-03-16T00:02:20.666Z,53.06
2023-03-16T00:04:47.445Z,52.85
2023-03-16T00:07:15.106Z,52.80
2023-03-16T00:09:42.330Z,53.07
2023-03-16T00:12:19.966Z,52.92
2023-03-16T00:14:48.328Z,53.09
2023-03-16T00:17:20.337Z,52.79
2023-03-16T00:19:55.640Z,53.33
2023-03-16T00:22:24.585Z,53.17
2023-03-16T00:24:52.689Z,53.39
2023-03-16T00:27:19.958Z,53.29
2023-03-16T00:29:55.710Z,53.85
2023-03-16T00:32:25.604Z,53.54
2023-03-16T00:34:52.633Z,53.68
2023-03-16T00:37:20.293Z,53.69
2023-03-16T00:39:47.353Z,54.00
2023-03-16T00:42:15.115Z,53.90
2023-03-16T00:44:42.042Z,54.25
2023-03-16T00:47:09.134Z,54.23
2023-03-16T00:49:36.413Z,54.01
2023-03-16T00:52:07.598Z,54.20
2023-03-16T00:54:34.867Z,54.02
2023-03-16T00:57:02.469Z,54.54
2023-03-16T00:59:30.454Z,54.55
2023-03-16T01:01:57.138Z,54.59
2023-03-16T01:04:23.866Z,54.43
2023-03-16T01:06:51.763Z,54.53
2023-03-16T01:09:18.554Z,54.47
2023-03-16T01:11:45.466Z,54.55
2023-03-16T01:14:12.284Z,54.57
2023-03-16T01:16:40.608Z,54.17
2023-03-16T01:19:07.294Z,54.24
2023-03-16T01:21:33.920Z,54.50
2023-03-16T01:24:00.685Z,54.69
2023-03-16T01:26:28.046Z,54.55
2023-03-16T01:28:55.000Z,54.27
2023-03-16T01:31:22.762Z,54.69
2023-03-16T01:33:49.543Z,54.51
2023-03-16T01:36:21.747Z,54.53
2023-03-16T01:38:53.219Z,54.21
2023-03-16T01:41:20.729Z,54.33
2023-03-16T01:43:47.407Z,54.78
2023-03-16T01:46:18.568Z,54.67
2023-03-16T01:49:12.377Z,54.21
2023-03-16T01:51:52.991Z,54.38
2023-03-16T01:54:26.951Z,54.37
2023-03-16T01:56:58.657Z,54.40
2023-03-16T01:59:31.669Z,54.21
2023-03-16T02:01:59.101Z,54.24
2023-03-16T02:04:50.418Z,53.94
2023-03-16T02:07:22.253Z,54.43
2023-03-16T02:09:50.606Z,54.16
2023-03-16T02:12:18.844Z,54.38
2023-03-16T02:14:51.464Z,54.19
2023-03-16T02:17:21.368Z,54.25
2023-03-16T02:20:08.885Z,54.61
2023-03-16T02:22:39.772Z,54.51
2023-03-16T02:25:07.182Z,54.16
2023-03-16T02:27:42.995Z,54.30
2023-03-16T02:30:16.509Z,54.23
2023-03-16T02:32:55.898Z,54.28
2023-03-16T02:35:23.133Z,54.41
2023-03-16T02:37:52.621Z,54.18
2023-03-16T02:40:27.169Z,54.46
2023-03-16T02:43:13.847Z,54.55
2023-03-16T02:45:51.229Z,54.42
2023-03-16T02:48:23.849Z,54.43
2023-03-16T02:50:53.061Z,54.25
2023-03-16T02:53:20.180Z,54.50
2023-03-16T02:55:47.546Z,54.32
2023-03-16T02:58:15.445Z,54.47
2023-03-16T03:00:42.448Z,54.58
2023-03-16T03:03:09.534Z,54.29
2023-03-16T03:05:38.085Z,54.50
2023-03-16T03:08:05.678Z,54.17
2023-03-16T03:10:32.849Z,54.04
2023-03-16T03:12:59.635Z,54.14
2023-03-16T03:15:26.534Z,54.44
2023-03-16T03:18:00.411Z,54.41
2023-03-16T03:20:30.983Z,54.42
2023-03-16T03:22:57.768Z,54.13
2023-03-16T03:25:24.526Z,54.31
2023-03-16T03:27:54.687Z,54.19
2023-03-16T03:30:24.503Z,54.50
2023-03-16T03:32:52.486Z,54.52
2023-03-16T03:35:21.374Z,54.30
2023-03-16T03:37:48.224Z,54.45
2023-03-16T03:40:17.569Z,54.33
2023-03-16T03:42:47.602Z,54.25
2023-03-16T03:45:15.375Z,54.31
2023-03-16T03:47:43.604Z,54.25
2023-03-16T03:50:15.585Z,54.51
2023-03-16T03:52:55.727Z,54.37
2023-03-16T03:55:22.501Z,54.36
2023-03-16T03:57:49.145Z,54.47
2023-03-16T04:00:16.938Z,54.14
2023-03-16T04:02:44.533Z,54.38
2023-03-16T04:05:27.459Z,54.26
2023-03-16T04:07:57.412Z,54.46
2023-03-16T04:10:29.379Z,54.09
2023-03-16T04:12:57.201Z,54.27
2023-03-16T04:15:24.117Z,53.99
2023-03-16T04:18:09.859Z,54.01
2023-03-16T04:20:38.054Z,54.26
2023-03-16T04:23:05.332Z,54.26
2023-03-16T04:25:38.349Z,54.03
2023-03-16T04:28:05.961Z,53.91
2023-03-16T04:30:35.135Z,53.88
2023-03-16T04:33:15.034Z,53.76
2023-03-16T04:35:42.789Z,54.14
2023-03-16T04:38:10.697Z,53.93
2023-03-16T04:40:44.394Z,54.08
2023-03-16T04:43:16.128Z,53.83
2023-03-16T04:45:43.845Z,54.09
2023-03-16T04:48:10.956Z,53.67
2023-03-16T04:50:38.541Z,54.07
2023-03-16T04:53:05.373Z,53.98
2023-03-16T04:55:32.887Z,54.20
2023-03-16T04:57:59.957Z,53.91
2023-03-16T05:00:30.120Z,53.92
2023-03-16T05:03:04.316Z,53.81
2023-03-16T05:05:31.291Z,53.88
2023-03-16T05:07:58.018Z,53.80
2023-03-16T05:10:28.091Z,54.03
2023-03-16T05:12:55.606Z,53.71
2023-03-16T05:15:23.040Z,53.65
2023-03-16T05:17:58.380Z,53.62
2023-03-16T05:20:26.120Z,53.85
2023-03-16T05:22:56.846Z,53.96
2023-03-16T05:25:27.047Z,53.71
2023-03-16T05:27:57.054Z,54.00
2023-03-16T05:30:43.162Z,54.07
2023-03-16T05:33:13.438Z,53.69
2023-03-16T05:35:40.739Z,53.84
2023-03-16T05:38:11.113Z,53.63
2023-03-16T05:40:40.370Z,53.92
2023-03-16T05:43:32.140Z,54.01
2023-03-16T05:45:59.431Z,53.92
2023-03-16T05:48:26.890Z,54.03
2023-03-16T05:50:56.854Z,53.58
2023-03-16T05:53:29.390Z,53.70
2023-03-16T05:56:03.277Z,53.64
2023-03-16T05:58:35.675Z,53.57
2023-03-16T06:01:07.378Z,53.73
2023-03-16T06:03:34.193Z,53.49
2023-03-16T06:06:02.097Z,53.82
2023-03-16T06:08:38.314Z,53.95
2023-03-16T06:11:11.647Z,53.93
2023-03-16T06:13:39.375Z,53.71
2023-03-16T06:16:06.409Z,54.05
2023-03-16T06:18:35.250Z,53.30
2023-03-16T06:21:02.041Z,53.46
2023-03-16T06:23:29.651Z,53.96
2023-03-16T06:25:59.638Z,54.72
2023-03-16T06:28:28.469Z,54.65
2023-03-16T06:30:56.501Z,55.21
2023-03-16T06:33:27.734Z,55.79
2023-03-16T06:35:54.590Z,55.95
2023-03-16T06:38:30.012Z,55.92
2023-03-16T06:41:01.677Z,56.05
2023-03-16T06:43:31.774Z,56.33
2023-03-16T06:45:58.866Z,56.64
2023-03-16T06:48:25.592Z,56.12
2023-03-16T06:50:52.312Z,56.42
2023-03-16T06:53:26.125Z,56.88
2023-03-16T06:55:54.084Z,56.87
2023-03-16T06:58:21.258Z,56.75
2023-03-16T07:00:47.967Z,56.71
2023-03-16T07:03:14.684Z,56.68
2023-03-16T07:05:47.936Z,56.73
2023-03-16T07:08:15.245Z,56.79
2023-03-16T07:10:42.358Z,56.90
2023-03-16T07:13:09.147Z,56.68
2023-03-16T07:15:35.864Z,56.64
2023-03-16T07:18:03.271Z,56.28
2023-03-16T07:20:32.260Z,56.77
2023-03-16T07:23:04.699Z,56.92
2023-03-16T07:25:31.741Z,56.87
2023-03-16T07:27:59.334Z,57.19
2023-03-16T07:30:31.726Z,57.28
2023-03-16T07:32:58.953Z,57.30
2023-03-16T07:35:26.780Z,57.84
2023-03-16T07:37:54.433Z,57.81
2023-03-16T07:40:21.794Z,58.37
2023-03-16T07:42:48.729Z,58.65
2023-03-16T07:45:25.778Z,58.81
2023-03-16T07:47:52.741Z,58.44
2023-03-16T07:50:33.724Z,58.38
2023-03-16T07:53:00.562Z,58.82
2023-03-16T07:55:27.731Z,58.81
2023-03-16T07:57:55.356Z,59.06
2023-03-16T08:00:29.038Z,58.66
2023-03-16T08:02:57.643Z,58.66
2023-03-16T08:05:26.621Z,59.31
2023-03-16T08:07:59.240Z,59.28
2023-03-16T08:10:28.613Z,59.13
2023-03-16T08:13:15.995Z,59.57
2023-03-16T08:15:58.454Z,59.57
2023-03-16T08:18:34.776Z,59.71
2023-03-16T08:21:01.606Z,59.61
2023-03-16T08:23:29.387Z,59.32
2023-03-16T08:25:57.399Z,59.34
2023-03-16T08:28:26.234Z,59.36
2023-03-16T08:30:55.634Z,59.02
2023-03-16T08:33:46.836Z,59.06
2023-03-16T08:36:16.761Z,58.50
2023-03-16T08:39:03.717Z,58.39
2023-03-16T08:41:34.775Z,58.39
2023-03-16T08:44:05.575Z,58.83
2023-03-16T08:46:34.074Z,58.65
2023-03-16T08:49:01.281Z,58.72
2023-03-16T08:51:29.531Z,58.95
2023-03-16T08:53:56.208Z,58.91
2023-03-16T08:56:22.877Z,58.89
2023-03-16T08:58:51.193Z,59.43
2023-03-16T09:01:19.671Z,59.67
2023-03-16T09:03:46.678Z,59.87
2023-03-16T09:06:15.624Z,60.09
2023-03-16T09:08:44.469Z,59.95
2023-03-16T09:11:14.290Z,59.82
2023-03-16T09:13:41.908Z,59.56
2023-03-16T09:16:10.582Z,59.17
2023-03-16T09:18:37.320Z,58.71
2023-03-16T09:21:06.442Z,58.58
2023-03-16T09:23:34.790Z,58.33
2023-03-16T09:26:03.198Z,57.99
2023-03-16T09:28:31.331Z,57.97
2023-03-16T09:30:58.589Z,58.27
2023-03-16T09:33:26.106Z,58.40
2023-03-16T09:35:52.886Z,58.79
2023-03-16T09:38:19.887Z,58.84
2023-03-16T09:40:48.956Z,58.64
2023-03-16T09:43:57.823Z,58.15
2023-03-16T09:46:33.871Z,57.85
2023-03-16T09:49:02.427Z,57.63
2023-03-16T09:52:00.732Z,57.75
2023-03-16T09:54:27.665Z,56.96
2023-03-16T09:56:56.055Z,56.50
2023-03-16T09:59:22.773Z,56.02
2023-03-16T10:01:58.307Z,56.03
2023-03-16T10:04:46.241Z,55.45
2023-03-16T10:07:21.245Z,54.13
2023-03-16T10:09:54.842Z,54.08
2023-03-16T10:12:23.327Z,53.60
2023-03-16T10:14:57.791Z,53.21
2023-03-16T10:17:30.932Z,52.33
2023-03-16T10:20:01.512Z,51.93
2023-03-16T10:22:32.230Z,52.07
2023-03-16T10:25:26.783Z,51.24
2023-03-16T10:27:54.128Z,50.54
2023-03-16T10:30:31.131Z,50.68
2023-03-16T10:33:03.342Z,49.84
2023-03-16T10:35:33.638Z,48.87
2023-03-16T10:38:00.399Z,48.33
2023-03-16T10:40:31.491Z,48.05
2023-03-16T10:43:05.569Z,47.73
2023-03-16T10:45:35.206Z,47.26
2023-03-16T10:48:08.844Z,46.15
2023-03-16T10:50:36.407Z,45.41
2023-03-16T10:53:03.462Z,44.87
2023-03-16T10:55:33.961Z,44.18
2023-03-16T10:58:01.390Z,43.57
2023-03-16T11:00:28.961Z,43.22
2023-03-16T11:02:57.123Z,42.58
2023-03-16T11:05:29.641Z,42.00
2023-03-16T11:08:00.434Z,41.87
2023-03-16T11:10:33.361Z,41.79
2023-03-16T11:13:12.753Z,41.47
2023-03-16T11:16:03.364Z,41.15
2023-03-16T11:18:40.252Z,40.64
2023-03-16T11:21:17.530Z,40.23
2023-03-16T11:23:56.042Z,40.03
2023-03-16T11:26:35.608Z,39.40
2023-03-16T11:29:17.773Z,39.19
2023-03-16T11:31:50.728Z,37.10
2023-03-16T11:34:28.263Z,37.87
2023-03-16T11:37:04.474Z,37.68
2023-03-16T11:39:41.661Z,38.41
2023-03-16T11:42:26.512Z,38.12
2023-03-16T11:44:57.361Z,37.63
2023-03-16T11:48:03.781Z,37.22
2023-03-16T11:50:39.465Z,35.94
2023-03-16T11:53:22.654Z,36.42
2023-03-16T11:56:21.866Z,35.62
2023-03-16T11:59:08.277Z,35.04
2023-03-16T12:02:01.023Z,35.18
2023-03-16T12:04:47.779Z,34.74
2023-03-16T12:07:35.410Z,34.71
2023-03-16T12:10:07.984Z,34.09
2023-03-16T12:12:53.768Z,33.71
2023-03-16T12:15:24.347Z,33.48
2023-03-16T12:17:54.957Z,33.39
2023-03-16T12:20:26.437Z,33.12
2023-03-16T12:23:14.954Z,32.84
2023-03-16T12:25:46.130Z,32.65
2023-03-16T12:28:27.666Z,31.80
2023-03-16T12:31:15.727Z,31.88
2023-03-16T12:33:54.513Z,32.49
2023-03-16T12:36:52.663Z,30.79
2023-03-16T12:39:34.624Z,31.07
2023-03-16T12:42:11.635Z,31.24
2023-03-16T12:44:40.561Z,32.24
2023-03-16T12:47:24.070Z,32.00
2023-03-16T12:49:52.046Z,31.74
2023-03-16T12:52:18.828Z,30.79
2023-03-16T12:55:08.308Z,31.26
2023-03-16T12:57:36.939Z,31.68
2023-03-16T13:00:09.055Z,31.54
2023-03-16T13:02:37.682Z,31.18
2023-03-16T13:05:17.012Z,31.83
2023-03-16T13:07:52.280Z,31.15
2023-03-16T13:10:21.096Z,31.63
2023-03-16T13:12:48.161Z,30.79
2023-03-16T13:15:18.102Z,31.36
2023-03-16T13:17:45.707Z,31.20
2023-03-16T13:20:31.293Z,31.37
2023-03-16T13:23:17.247Z,31.73
2023-03-16T13:25:46.309Z,33.18
2023-03-16T13:28:14.370Z,34.67
2023-03-16T13:30:48.815Z,33.74
2023-03-16T13:33:21.943Z,32.75
2023-03-16T13:35:51.194Z,31.32
2023-03-16T13:38:20.045Z,31.09
2023-03-16T13:40:51.745Z,30.97
2023-03-16T13:43:31.912Z,30.98
2023-03-16T13:45:59.107Z,30.65
2023-03-16T13:48:26.011Z,31.00
2023-03-16T13:50:57.866Z,30.39
2023-03-16T13:53:29.033Z,30.19
2023-03-16T13:55:57.144Z,31.04
2023-03-16T13:58:25.953Z,32.22
2023-03-16T14:00:58.034Z,32.68
2023-03-16T14:03:30.161Z,33.80
2023-03-16T14:05:57.566Z,33.02
2023-03-16T14:08:24.959Z,32.51
2023-03-16T14:10:54.956Z,32.55
2023-03-16T14:13:33.011Z,32.81
2023-03-16T14:16:11.201Z,32.51
2023-03-16T14:18:42.147Z,33.32
2023-03-16T14:21:14.934Z,33.47
2023-03-16T14:23:44.688Z,33.12
2023-03-16T14:26:16.645Z,33.59
2023-03-16T14:28:54.268Z,34.10
2023-03-16T14:31:22.024Z,34.84
2023-03-16T14:33:48.809Z,35.25
2023-03-16T14:36:17.947Z,34.87
2023-03-16T14:38:48.368Z,32.82
2023-03-16T14:41:21.777Z,33.83
2023-03-16T14:43:51.837Z,34.98
2023-03-16T14:46:30.421Z,35.34
2023-03-16T14:49:08.973Z,35.69
2023-03-16T14:51:40.070Z,35.58
2023-03-16T14:54:17.179Z,35.68
2023-03-16T14:56:48.458Z,35.67
2023-03-16T14:59:15.290Z,35.34
2023-03-16T15:01:42.006Z,35.90
2023-03-16T15:04:10.382Z,35.07
2023-03-16T15:06:37.072Z,35.12
2023-03-16T15:09:03.770Z,34.98
2023-03-16T15:11:31.741Z,35.03
2023-03-16T15:14:14.555Z,35.55
2023-03-16T15:16:44.562Z,35.64
2023-03-16T15:19:11.828Z,35.53
2023-03-16T15:21:38.861Z,34.95
2023-03-16T15:24:05.734Z,35.12
2023-03-16T15:26:32.802Z,35.33
2023-03-16T15:28:59.507Z,34.96
2023-03-16T15:31:26.573Z,35.12
2023-03-16T15:33:53.362Z,35.23
2023-03-16T15:36:22.153Z,35.16
2023-03-16T15:38:49.500Z,33.17
2023-03-16T15:41:16.208Z,29.79
2023-03-16T15:43:44.214Z,27.27
2023-03-16T15:46:11.117Z,25.67
2023-03-16T15:48:38.471Z,25.72
2023-03-16T15:51:28.293Z,25.66
2023-03-16T15:53:56.903Z,24.55
2023-03-16T15:56:29.903Z,23.97
2023-03-16T15:59:01.966Z,25.46
2023-03-16T16:01:32.078Z,27.66
2023-03-16T16:03:59.209Z,29.61
2023-03-16T16:06:27.429Z,30.69
2023-03-16T16:08:54.354Z,32.53
2023-03-16T16:11:26.415Z,33.95
2023-03-16T16:13:54.763Z,35.69
2023-03-16T16:16:21.440Z,37.01
2023-03-16T16:18:48.594Z,38.24
2023-03-16T16:21:18.057Z,39.56
2023-03-16T16:23:45.438Z,41.02
2023-03-16T16:26:18.009Z,42.07
2023-03-16T16:28:44.786Z,43.18
2023-03-16T16:31:13.011Z,43.78
2023-03-16T16:33:39.864Z,44.62
2023-03-16T16:36:11.150Z,45.43
2023-03-16T16:38:37.817Z,46.38
2023-03-16T16:41:07.820Z,46.87
2023-03-16T16:43:37.555Z,47.74
2023-03-16T16:46:13.555Z,48.50
2023-03-16T16:48:43.662Z,48.91
2023-03-16T16:51:18.221Z,49.91
2023-03-16T16:53:49.474Z,50.37
2023-03-16T16:56:19.093Z,50.38
2023-03-16T16:58:46.492Z,50.93
2023-03-16T17:01:23.595Z,51.03
2023-03-16T17:03:50.487Z,51.63
2023-03-16T17:06:18.681Z,52.15
2023-03-16T17:08:46.361Z,52.72
2023-03-16T17:11:19.066Z,53.11
2023-03-16T17:13:46.963Z,53.57
2023-03-16T17:16:16.779Z,53.60
2023-03-16T17:18:44.441Z,54.22
2023-03-16T17:21:13.732Z,54.65
2023-03-16T17:23:40.684Z,54.58
2023-03-16T17:26:17.543Z,55.07
2023-03-16T17:28:53.504Z,55.85
2023-03-16T17:31:24.553Z,56.35
2023-03-16T17:33:52.552Z,57.22
2023-03-16T17:36:20.014Z,57.62
2023-03-16T17:38:47.473Z,57.66
2023-03-16T17:41:25.696Z,57.89
2023-03-16T17:43:54.566Z,58.15
2023-03-16T17:46:26.899Z,57.98
2023-03-16T17:48:55.599Z,57.91
2023-03-16T17:51:25.559Z,58.44
2023-03-16T17:53:52.964Z,58.58
2023-03-16T17:56:24.810Z,58.73
2023-03-16T17:58:58.445Z,58.87
2023-03-16T18:01:33.609Z,59.20
2023-03-16T18:04:01.387Z,59.03
2023-03-16T18:06:29.758Z,58.83
2023-03-16T18:08:57.574Z,59.04
2023-03-16T18:11:36.080Z,59.38
2023-03-16T18:14:04.840Z,59.60
2023-03-16T18:16:31.577Z,59.77
2023-03-16T18:19:05.864Z,59.45
2023-03-16T18:21:33.523Z,58.89
2023-03-16T18:24:00.167Z,58.12
2023-03-16T18:26:27.608Z,57.72
2023-03-16T18:28:55.557Z,57.61
2023-03-16T18:31:25.804Z,57.15
2023-03-16T18:33:55.705Z,56.76
2023-03-16T18:36:27.692Z,56.96
2023-03-16T18:38:55.282Z,56.25
2023-03-16T18:41:30.472Z,56.07
2023-03-16T18:44:00.013Z,55.88
2023-03-16T18:46:32.751Z,55.70
2023-03-16T18:49:02.067Z,55.78
2023-03-16T18:51:29.471Z,55.35
2023-03-16T18:53:56.716Z,55.24
2023-03-16T18:56:27.672Z,55.32
2023-03-16T18:58:55.472Z,55.19
2023-03-16T19:01:30.724Z,55.08
2023-03-16T19:03:58.482Z,54.62
2023-03-16T19:06:33.931Z,54.49
2023-03-16T19:09:08.782Z,54.39
2023-03-16T19:11:39.644Z,54.67
2023-03-16T19:14:24.720Z,54.44
2023-03-16T19:16:52.050Z,54.16
2023-03-16T19:19:21.914Z,54.41
2023-03-16T19:22:13.720Z,54.23
2023-03-16T19:24:49.334Z,53.90
2023-03-16T19:27:29.151Z,53.91
2023-03-16T19:29:55.922Z,53.69
2023-03-16T19:32:22.960Z,53.57
2023-03-16T19:34:50.081Z,53.47
2023-03-16T19:37:19.556Z,53.33
2023-03-16T19:39:46.449Z,53.79
2023-03-16T19:42:27.165Z,53.69
2023-03-16T19:44:53.937Z,53.30
2023-03-16T19:47:27.356Z,53.52
2023-03-16T19:49:54.443Z,53.40
2023-03-16T19:52:21.690Z,53.17
2023-03-16T19:54:48.512Z,53.47
2023-03-16T19:57:17.149Z,53.50
2023-03-16T19:59:46.639Z,53.43
2023-03-16T20:02:28.422Z,53.26
2023-03-16T20:04:55.440Z,53.28
2023-03-16T20:07:22.376Z,53.07
2023-03-16T20:09:49.394Z,52.83
2023-03-16T20:12:24.916Z,52.93
2023-03-16T20:14:52.127Z,52.95
2023-03-16T20:17:24.093Z,53.21
2023-03-16T20:19:51.742Z,53.07
2023-03-16T20:22:24.768Z,53.05
2023-03-16T20:24:51.822Z,52.68
2023-03-16T20:27:19.909Z,52.90
2023-03-16T20:29:47.170Z,53.13
2023-03-16T20:32:20.468Z,52.96
2023-03-16T20:34:47.877Z,52.56
2023-03-16T20:37:26.049Z,52.81
2023-03-16T20:39:54.386Z,52.75
2023-03-16T20:42:27.438Z,52.89
2023-03-16T20:44:54.053Z,52.73
2023-03-16T20:47:23.139Z,52.55
2023-03-16T20:49:54.154Z,52.88
2023-03-16T20:52:23.574Z,52.60
2023-03-16T20:54:50.630Z,52.95
2023-03-16T20:57:21.218Z,52.54
2023-03-16T20:59:49.238Z,52.63
2023-03-16T21:02:29.500Z,52.85
2023-03-16T21:05:00.392Z,52.67
2023-03-16T21:07:27.318Z,52.48
2023-03-16T21:09:53.952Z,52.53
2023-03-16T21:12:22.423Z,52.49
2023-03-16T21:14:49.090Z,52.63
2023-03-16T21:17:32.154Z,52.46
2023-03-16T21:19:59.521Z,52.44
2023-03-16T21:22:31.298Z,52.39
2023-03-16T21:24:58.641Z,52.48
2023-03-16T21:27:27.639Z,52.42
2023-03-16T21:29:55.910Z,52.84
2023-03-16T21:32:25.430Z,52.33
2023-03-16T21:34:52.485Z,52.44
2023-03-16T21:37:20.845Z,52.30
2023-03-16T21:39:48.367Z,52.23
2023-03-16T21:42:17.175Z,52.36
2023-03-16T21:44:44.642Z,52.67
2023-03-16T21:47:20.526Z,52.46
2023-03-16T21:49:47.355Z,52.39
2023-03-16T21:52:28.521Z,52.65
2023-03-16T21:54:56.870Z,52.39
2023-03-16T21:57:23.714Z,52.41
2023-03-16T21:59:51.257Z,52.34
2023-03-16T22:02:22.057Z,52.49
2023-03-16T22:04:49.642Z,52.59
2023-03-16T22:07:16.693Z,52.70
2023-03-16T22:09:43.530Z,52.80
2023-03-16T22:12:14.020Z,52.37
2023-03-16T22:14:40.779Z,52.67
2023-03-16T22:17:08.539Z,52.45
2023-03-16T22:19:35.246Z,52.55
2023-03-16T22:22:01.998Z,52.43
2023-03-16T22:24:30.609Z,52.40
2023-03-16T22:26:57.992Z,52.86
2023-03-16T22:29:28.163Z,52.79
2023-03-16T22:32:04.490Z,52.75
2023-03-16T22:34:33.860Z,52.73
2023-03-16T22:37:01.394Z,52.70
2023-03-16T22:39:35.025Z,52.61
2023-03-16T22:42:01.784Z,52.40
2023-03-16T22:44:28.488Z,52.51
2023-03-16T22:46:55.224Z,52.72
2023-03-16T22:49:27.823Z,52.53
2023-03-16T22:51:56.649Z,52.61
2023-03-16T22:54:26.387Z,52.65
2023-03-16T22:56:53.154Z,52.72
2023-03-16T22:59:22.614Z,52.58
2023-03-16T23:01:50.187Z,52.64
2023-03-16T23:04:21.842Z,52.48
2023-03-16T23:06:50.934Z,52.80
2023-03-16T23:09:18.810Z,52.68
2023-03-16T23:11:46.382Z,52.60
2023-03-16T23:14:19.559Z,52.95
2023-03-16T23:16:46.820Z,52.74
2023-03-16T23:19:27.762Z,52.56
2023-03-16T23:21:56.559Z,52.51
2023-03-16T23:24:23.317Z,52.96
2023-03-16T23:26:51.124Z,52.55
2023-03-16T23:29:17.820Z,52.96
2023-03-16T23:31:44.485Z,52.68
2023-03-16T23:34:12.501Z,52.57
2023-03-16T23:36:39.574Z,52.89
2023-03-16T23:39:07.245Z,52.96
2023-03-16T23:41:34.344Z,52.87
2023-03-16T23:44:01.427Z,52.96
2023-03-16T23:46:29.477Z,53.19
2023-03-16T23:48:58.404Z,52.82
2023-03-16T23:51:30.258Z,52.83
2023-03-16T23:53:57.590Z,52.92
2023-03-16T23:56:24.945Z,53.06
2023-03-16T23:58:51.662Z,53.27
